Tiempo atmosférico en la estación meteorológica de Adra,club Naútico, Almería (8 m.)



Fecha
DESCASC
Temp. máxima en grados centígrados (hora)
DESCASC
Temp. mínima en grados centígrados (hora)
DESCASC
Temp. media en grados centígrados
DESCASC
Racha de viento máxima en m/sg (hora)
DESCASC
Velocidad máxima media en intervalos de 10 minutos(hora)
DESCASC
Precipitaciones diarias en mm
DESCASC
Precipitaciones de 00:00 a 06:00 en mm
DESCASC
Precipitaciones de 06:00 a 12:00 en mm
DESCASC
Precipitaciones de 12:00 a 18:00 en mm
DESCASC
Precipitaciones de 18:00 a 24:00 en mm
DESCASC

Gráficas

Temp. máximas Temp. mínimas Temp. medias Precipitaciones Rachas de viento máximas Velocidades máximas media en intervalos de 10 minutos

Datos horarios

Fecha y hora oficial Temperatura (ºC) Velocidad del viento (km/h) Dirección del viento Racha (km/h) Dirección de racha Precipitación (mm) Presión (hPa) Tendencia (hPa) Humedad (%)
2020-03-31 23:00:00 15.4 6 Oeste 19 Sudoeste 0 1012.3 2.6 89
2020-03-31 22:00:00 15.3 5 Sudoeste 11 Sudoeste 0 1011.4 1.9 92
2020-03-31 21:00:00 15.4 3 Oeste 10 Oeste 0 1010.4 1.3 89
2020-03-31 20:00:00 15.5 2 Sudoeste 10 Sudoeste 0.2 1009.7 1.1 86
2020-03-31 19:00:00 15.6 4 Sudoeste 10 Sudoeste 0.3 1009.5 1.3 85
2020-03-31 18:00:00 16 5 Oeste 8 Sudeste 0.2 1009.1 0.4 79
2020-03-31 17:00:00 16.4 6 Sudeste 12 Sudeste 0 1008.6 -1.2 76
2020-03-31 16:00:00 16.9 8 Sudeste 15 Sudeste 0 1008.2 -0.4 75
2020-03-31 15:00:00 16.6 6 Este 13 Este 0 1008.7 -0.1 76
2020-03-31 14:00:00 14.6 4 Este 12 Norte 2.1 1009.8 0.5 84
2020-03-31 13:00:00 15.9 6 Norte 14 Este 0.2 1008.6 -0.8 75
2020-03-31 12:00:00 16.5 3 Nordeste 14 Norte 0 1008.8 0.1 66
2020-03-31 11:00:00 14.6 6 Nordeste 18 Norte 0 1009.3 1.4 80
2020-03-31 10:00:00 13.4 4 Nordeste 12 Noroeste 0 1009.4 1.3 86
2020-03-31 09:00:00 13.5 5 Nordeste 18 Este 0 1008.7 -0.8 82
2020-03-31 08:00:00 13 7 Nordeste 26 Norte 0 1007.9 0.2 86
2020-03-31 07:00:00 12.4 10 Norte 25 Nordeste 0 1008.1 0.2 92
2020-03-31 06:00:00 12.7 10 Oeste 22 Oeste 0 1009.5 1.2 89
2020-03-31 05:00:00 14.2 4 Nordeste 14 Este 0 1007.7 -1.5 87
2020-03-31 04:00:00 14.9 4 Nordeste 22 Este 0.4 1007.9 -1.5 83
2020-03-31 03:00:00 15 6 Este 21 Nordeste 0.1 1008.3 -1.5 88
2020-03-31 02:00:00 15.2 6 Este 14 Este 0 1009.2 -0.6 87
2020-03-31 01:00:00 15.3 2 Nordeste 12 Este 0 1009.4 0.4 86
2020-03-31 00:00:00 15.6 4 Este 8 Este 0 1009.8 1.2 87
2020-03-30 23:00:00 15.8 0 Calma 11 Sudoeste 0 1009.8 1 79
2020-03-30 22:00:00 16.3 3 Sudoeste 7 Sudoeste 0 1009 0.1 78
2020-03-30 21:00:00 16.3 0 Calma 11 Sudoeste 0 1008.6 -0.8 73
2020-03-30 20:00:00 16 8 Sudoeste 19 Sudoeste 0 1008.8 -0.5 79
2020-03-30 19:00:00 16.2 12 Sudoeste 25 Sudoeste 0 1008.9 -1.5 79
2020-03-30 18:00:00 16 15 Oeste 24 Sudoeste 0 1009.4 -1.6 83
2020-03-30 17:00:00 16.4 12 Sudoeste 24 Sudoeste 0 1009.3 -2.4 80
2020-03-30 16:00:00 16.3 14 Sudoeste 30 Sudoeste 0 1010.4 -1.8 82
2020-03-30 15:00:00 16.1 18 Sudoeste 27 Sudoeste 0 1011 -2 81
2020-03-30 14:00:00 16.7 14 Sudoeste 24 Oeste 0 1011.7 -1 79
2020-03-30 13:00:00 16.4 14 Sudoeste 24 Sudoeste 0 1012.2 -1.1 81
2020-03-30 12:00:00 15.9 13 Sudoeste 22 Sudoeste 0 1013 -0.3 78
2020-03-30 11:00:00 16.3 7 Sudoeste 13 Sudoeste 0 1012.7 -0.8 75
2020-03-30 10:00:00 15.8 5 Sudoeste 9 Sudoeste 0 1013.3 -0.2 75
2020-03-30 09:00:00 15.4 0 Calma 6 Norte 0 1013.3 -0.7 77
2020-03-30 08:00:00 13.1 0 Calma 5 Norte 0 1013.5 -1.1 80
2020-03-30 07:00:00 13.9 3 Norte 6 Oeste 0 1013.5 -1.9 81
2020-03-30 06:00:00 14.2 4 Oeste 9 Oeste 0 1014 -1.9 80
2020-03-30 05:00:00 14.1 3 Oeste 9 Oeste 0 1014.6 -1.8 80
2020-03-30 04:00:00 14.3 2 Noroeste 18 Oeste 0 1015.4 -1.5 80
2020-03-30 03:00:00 14.2 2 Noroeste 14 Oeste 0 1015.9 -1.4 78
2020-03-30 02:00:00 14.7 8 Oeste 22 Oeste 0 1016.4 -1.1 78
2020-03-30 01:00:00 14.6 14 Oeste 22 Oeste 0 1016.9 -0.7 77
2020-03-30 00:00:00 14.6 8 Oeste 13 Oeste 0 1017.3 -0.1 75
2020-03-29 23:00:00 14.8 7 Oeste 12 Oeste 0 1017.5 0.4 75
2020-03-29 22:00:00 14.7 3 Noroeste 15 Oeste 0 1017.6 0.7 72
2020-03-29 21:00:00 15.2 10 Oeste 18 Oeste 0 1017.4 0.6 73
2020-03-29 20:00:00 15.3 10 Sudoeste 22 Sudoeste 0 1017.1 0.2 71
2020-03-29 19:00:00 16.4 13 Sudoeste 24 Sudoeste 0 1016.9 -0.6 66
2020-03-29 18:00:00 16.6 13 Sudoeste 25 Oeste 0 1016.8 -1.4 65
2020-03-29 17:00:00 16.6 13 Sudoeste 23 Sudoeste 0 1016.9 -2.2 65
2020-03-29 16:00:00 16.4 13 Sudoeste 22 Sudoeste 0 1017.5 -1.7 68
2020-03-29 15:00:00 16.9 13 Sudoeste 25 Sudoeste 0 1018.2 -1.4 68
2020-03-29 14:00:00 16.5 12 Sudoeste 20 Sudoeste 0 1019.1 0 67
2020-03-29 13:00:00 17.1 8 Sudoeste 21 Sudoeste 0 1019.2 0.7 65
2020-03-29 12:00:00 16.1 9 Sudoeste 19 Sudoeste 0 1019.6 -0.1 70
2020-03-29 11:00:00 16.2 6 Sudoeste 11 Sudoeste 0 1019.1 -1 68
2020-03-29 10:00:00 17.2 0 Calma 5 Este 0 1018.5 -1.4 62
2020-03-29 09:00:00 14.1 2 Nordeste 6 Nordeste 0 1019.7 -0.4 72
2020-03-29 08:00:00 11.9 2 Norte 6 Norte 0 1020.1 -0.1 77
2020-03-29 07:00:00 12 3 Norte 7 Nordeste 0 1019.9 -0.7 77
2020-03-29 06:00:00 12.1 3 Norte 5 Norte 0 1020.1 -1 78
2020-03-29 05:00:00 12.3 0 Calma 6 Nordeste 0 1020.2 -1.3 77
2020-03-29 03:00:00 13.1 4 Norte 7 Noroeste 0 1021.1 -0.2 76
2020-03-29 01:00:00 13.9 3 Norte 8 Este 0 1021.5 0.5 73
2020-03-29 00:00:00 14.4 0 Calma 9 Este 0 1021.6 1.2 72
2020-03-28 23:00:00 14.4 4 Este 10 Este 0 1021.3 1.9 72
2020-03-28 22:00:00 14.5 4 Este 12 Este 0 1021 2.1 71
2020-03-28 21:00:00 14.6 6 Este 13 Nordeste 0 1020.4 1.9 71
2020-03-28 20:00:00 14.6 6 Nordeste 15 Nordeste 0 1019.4 1.4 71
2020-03-28 19:00:00 14.7 10 Nordeste 19 Nordeste 0 1018.9 2.3 72
2020-03-28 18:00:00 14.7 13 Nordeste 25 Sudeste 0 1018.5 0.7 71
2020-03-28 17:00:00 14.7 17 Sudeste 26 Sudeste 0 1018 0.6 70
2020-03-28 16:00:00 15.4 16 Sudeste 26 Sudeste 0 1016.6 -1.2 67
2020-03-28 15:00:00 15.2 14 Sudeste 27 Sudeste 0 1017.8 0.1 66
2020-03-28 14:00:00 15.5 20 Sudeste 31 Sudeste 0 1017.4 -0.3 64
2020-03-28 13:00:00 15.1 20 Sudeste 31 Sudeste 0 1017.8 1.7 66
2020-03-28 12:00:00 15 16 Sudeste 27 Sudeste 0 1017.7 1.8 67
2020-03-28 11:00:00 15 13 Sudeste 22 Sudeste 0 1017.7 1.2 64
2020-03-28 10:00:00 16.8 4 Sudeste 14 Sudeste 0 1016.1 0 61
2020-03-28 09:00:00 16.3 2 Sur 11 Nordeste 0 1015.9 0.3 69
2020-03-28 08:00:00 12.9 5 Nordeste 12 Este 0 1016.5 1.4 76
2020-03-28 07:00:00 12.3 3 Nordeste 13 Este 0 1016.1 1.1 81
2020-03-28 06:00:00 12.7 3 Nordeste 8 Norte 0 1015.6 0.5 82
2020-03-28 05:00:00 13.4 2 Este 7 Nordeste 0 1015.1 -0.2 81
2020-03-28 04:00:00 13.3 3 Este 7 Este 0.1 1015 -0.4 81
2020-03-28 03:00:00 13.3 4 Este 15 Este 0 1015.1 -0.1 78
2020-03-28 02:00:00 13.6 5 Este 14 Este 0 1015.3 0.5 77
2020-03-28 01:00:00 13.5 5 Este 18 Este 0.3 1015.4 1.1 77
2020-03-28 00:00:00 13.9 8 Este 15 Nordeste 0 1015.2 1.8 73
2020-03-27 23:00:00 14.1 5 Este 12 Sudeste 0 1014.8 2.3 71
2020-03-27 22:00:00 14.1 4 Este 10 Este 0 1014.3 2.5 73
2020-03-27 21:00:00 14.2 3 Este 10 Este 0 1013.4 2.3 72
2020-03-27 20:00:00 14.3 5 Este 16 Sudeste 0 1012.5 2.2 72
2020-03-27 19:00:00 14.9 9 Sudeste 14 Sudeste 0 1011.8 0.5 68
2020-03-27 18:00:00 15.2 7 Sudeste 13 Sudeste 0 1011.1 -0.1 67
2020-03-27 17:00:00 15.5 8 Sudeste 17 Sudeste 0 1010.3 -1 65
2020-03-27 16:00:00 15.1 12 Sudeste 22 Sudeste 0 1011.3 -0.6 65
2020-03-27 15:00:00 15.4 14 Sudeste 24 Sudeste 0 1011.2 -0.7 63
2020-03-27 14:00:00 15.6 15 Sudeste 26 Sudeste 0 1011.3 -1.1 60
2020-03-27 13:00:00 15.8 15 Sudeste 25 Sudeste 0 1011.9 -0.3 51
2020-03-27 12:00:00 15.9 11 Este 27 Sudeste 0 1011.9 0.2 56
2020-03-27 11:00:00 14.9 12 Este 26 Este 0 1012.4 1 57
2020-03-27 10:00:00 14.2 12 Este 31 Este 0 1012.2 1.1 64
2020-03-27 09:00:00 13.9 10 Este 28 Este 0 1011.7 0.9 66
2020-03-27 08:00:00 13.6 10 Este 24 Sudeste 0 1011.4 0.8 67
2020-03-27 07:00:00 13.5 12 Este 26 Este 0 1011.1 0.5 67
2020-03-27 06:00:00 13.7 10 Este 27 Este 0 1010.8 -0.1 66
2020-03-27 05:00:00 13.8 13 Este 36 Este 0 1010.6 0.1 68
2020-03-27 04:00:00 13.6 12 Este 29 Este 0 1010.6 0.6 72
2020-03-27 03:00:00 13.6 10 Este 30 Este 0 1010.9 1.7 75
2020-03-27 02:00:00 14.1 14 Este 32 Nordeste 0 1010.5 1.9 75
2020-03-27 01:00:00 14.6 10 Este 31 Este 0 1010 2 80
2020-03-27 00:00:00 16.8 8 Este 22 Este 0 1009.2 1.7 56
2020-03-26 23:00:00 16.4 4 Este 22 Este 0 1008.6 2 75
2020-03-26 22:00:00 15.8 0 Calma 9 Este 0 1008 2.4 76
2020-03-26 21:00:00 16.9 4 Noroeste 19 Oeste 0 1007.5 1.9 70
2020-03-26 20:00:00 17.2 18 Oeste 38 Oeste 0 1006.6 1 77
2020-03-26 19:00:00 18.2 22 Oeste 50 Oeste 0 1005.6 -0.2 70
2020-03-26 18:00:00 16.9 28 Oeste 55 Oeste 0 1005.6 -0.9 82
2020-03-26 17:00:00 17.7 29 Oeste 53 Oeste 0 1005.6 -1.7 76
2020-03-26 16:00:00 17.7 30 Oeste 53 Oeste 0 1005.8 -2.5 74
2020-03-26 15:00:00 17.5 25 Oeste 39 Sudoeste 0 1006.5 -2.6 76
2020-03-26 14:00:00 17.5 21 Oeste 33 Oeste 0 1007.3 -2.9 73
2020-03-26 13:00:00 17.2 14 Sudoeste 34 Oeste 0 1008.3 -1 77
2020-03-26 12:00:00 16.1 23 Oeste 37 Oeste 0 1009.1 -2.1 81
2020-03-26 11:00:00 15.8 17 Oeste 32 Oeste 0 1010.2 -1.2 77
2020-03-26 10:00:00 17.7 0 Calma 8 Oeste 0 1009.3 -2.3 61
2020-03-26 09:00:00 13.1 3 Norte 8 Este 0 1011.2 -1.1 75
2020-03-26 08:00:00 11.9 3 Nordeste 12 Nordeste 0 1011.4 -1.7 77
2020-03-26 07:00:00 11.3 5 Nordeste 13 Norte 0 1011.6 -2.3 77
2020-03-26 06:00:00 11.7 6 Norte 15 Norte 0 1012.3 -2.6 77
2020-03-26 05:00:00 12.7 3 Norte 13 Oeste 0 1013.1 -2.7 80
2020-03-26 04:00:00 12.8 6 Noroeste 14 Oeste 0 1013.9 -2.4 78
2020-03-26 03:00:00 11.9 4 Norte 8 Noroeste 0 1014.9 -2.2 77
2020-03-26 02:00:00 12.4 3 Noroeste 10 Noroeste 0 1015.8 -1.8 76
2020-03-26 01:00:00 13.2 5 Oeste 12 Oeste 0 1016.3 -1.7 72
2020-03-26 00:00:00 13.1 4 Noroeste 8 Oeste 0 1017.1 -0.7 69
2020-03-25 23:00:00 13 4 Noroeste 9 Oeste 0 1017.6 0.2 67
2020-03-25 22:00:00 12.5 5 Noroeste 10 Noroeste 0 1018 0.9 67
2020-03-25 21:00:00 12.7 6 Noroeste 13 Oeste 0 1017.8 0.7 66
2020-03-25 20:00:00 13 8 Oeste 21 Oeste 0 1017.4 -0.1 69
2020-03-25 19:00:00 13.6 7 Sudoeste 13 Sudoeste 0 1017.1 -0.4 71
2020-03-25 18:00:00 14 3 Sudoeste 11 Sudeste 0 1017.1 -1.1 70
2020-03-25 17:00:00 13.7 6 Sudeste 12 Sudeste 0 1017.5 -1.5 70
2020-03-25 16:00:00 14.2 5 Sudeste 9 Sudeste 0 1017.5 -1.5 68
2020-03-25 15:00:00 13.6 4 Sudeste 6 Sudeste 0 1018.2 -0.4 72
2020-03-25 14:00:00 12.3 4 Nordeste 7 Nordeste 0.1 1019 1 76
2020-03-25 13:00:00 12.4 2 Norte 8 Nordeste 0.4 1019 1.7 76
2020-03-25 12:00:00 12.5 4 Nordeste 16 Este 0 1018.6 2.2 76
2020-03-25 11:00:00 12.4 7 Este 17 Nordeste 0 1018 2.4 80
2020-03-25 10:00:00 13.2 5 Noroeste 23 Oeste 0 1017.3 2.4 76
2020-03-25 09:00:00 14 12 Oeste 19 Oeste 0 1016.4 1.7 66
2020-03-25 08:00:00 14.3 6 Oeste 14 Oeste 0 1015.6 1.6 61
2020-03-25 07:00:00 14.3 0 Calma 17 Este 0 1014.9 1.2 60
2020-03-25 06:00:00 14.2 4 Este 9 Este 0 1014.7 1.2 70
2020-03-25 05:00:00 14.7 3 Sudeste 8 Este 0 1014 0.3 70
2020-03-25 04:00:00 15 3 Noroeste 24 Sudoeste 0 1013.7 0.1 65
2020-03-25 03:00:00 15.5 9 Sudoeste 18 Este 0 1013.5 0 61
2020-03-25 02:00:00 15.7 0 Calma 15 Oeste 0 1013.7 0.5 61
2020-03-25 01:00:00 15.8 4 Este 16 Nordeste 0 1013.6 1 61
2020-03-25 00:00:00 15.9 2 Sudoeste 30 Nordeste 0 1013.5 2.3 64
2020-03-24 23:00:00 15.7 11 Nordeste 25 Este 0 1013.2 3.3 68
2020-03-24 22:00:00 16.2 10 Este 29 Este 0 1012.6 3.5 59
2020-03-24 21:00:00 18.1 8 Sudeste 18 Sudeste 0 1011.2 3.1 46
2020-03-24 20:00:00 18.1 10 Este 33 Sudeste 0 1009.9 2.7 46
2020-03-24 19:00:00 17.2 13 Este 40 Este 0 1009.1 2.5 53
2020-03-24 18:00:00 18.5 12 Este 33 Sudeste 0 1008.1 1.1 46
2020-03-24 17:00:00 19.8 3 Sur 20 Norte 0 1007.2 0.2 45
2020-03-24 16:00:00 20.2 4 Norte 22 Noroeste 0 1006.6 -0.9 44
2020-03-24 15:00:00 19.4 12 Norte 39 Este 0 1007 0.4 48
2020-03-24 14:00:00 21.6 13 Este 40 Este 0 1007 0 38
2020-03-24 13:00:00 20.4 15 Este 44 Este 0 1007.5 0.6 41
2020-03-24 12:00:00 21.3 14 Este 44 Nordeste 0 1006.6 0.2 40
2020-03-24 11:00:00 20.3 6 Nordeste 30 Este 0 1007 0.4 44
2020-03-24 10:00:00 19.4 6 Norte 25 Norte 0 1006.9 0.2 44
2020-03-24 09:00:00 18.9 3 Nordeste 18 Noroeste 0 1006.4 0 46
2020-03-24 08:00:00 18 6 Norte 23 Norte 0 1006.6 0.1 49
2020-03-24 07:00:00 17.5 3 Norte 10 Norte 0 1006.7 0.3 50
2020-03-24 06:00:00 17.8 3 Noroeste 18 Nordeste 0 1006.4 -1.1 49
2020-03-24 05:00:00 16.9 6 Nordeste 23 Norte 0 1006.5 -1.9 52
2020-03-24 04:00:00 18.3 9 Norte 25 Norte 0 1006.4 -2.9 45
2020-03-24 03:00:00 17.2 9 Norte 20 Norte 0 1007.5 -1.6 49
2020-03-24 02:00:00 16.8 7 Norte 19 Norte 0 1008.4 -1 53
2020-03-24 01:00:00 16.3 3 Norte 15 Oeste 0 1009.3 -0.2 56
2020-03-24 00:00:00 17.4 6 Norte 25 Norte 0 1009.1 -1.3 53
2020-03-23 23:00:00 17 5 Nordeste 20 Norte 0 1009.4 -0.7 53
2020-03-23 22:00:00 16.5 3 Norte 22 Este 0 1009.5 -1 57
2020-03-23 21:00:00 15.3 2 Norte 6 Norte 0 1010.4 -0.1 70
2020-03-23 20:00:00 15.6 3 Norte 17 Nordeste 0 1010.1 -1.6 66
2020-03-23 19:00:00 15 3 Nordeste 18 Este 0 1010.5 -2 71
2020-03-23 18:00:00 15 10 Norte 25 Norte 0 1010.5 -1.9 70
2020-03-23 17:00:00 14.1 5 Nordeste 14 Norte 0 1011.7 -0.7 82
2020-03-23 16:00:00 13.4 4 Noroeste 27 Este 0.5 1012.5 -0.1 88
2020-03-23 15:00:00 15.8 9 Este 22 Este 0.2 1012.4 0.1 65
2020-03-23 14:00:00 15.2 4 Norte 26 Sudeste 0.2 1012.4 -0.6 72
2020-03-23 13:00:00 16.6 12 Sudeste 24 Sudeste 0 1012.6 -0.9 62
2020-03-23 12:00:00 17.2 13 Sudeste 22 Sudeste 0 1012.3 -2 53
2020-03-23 11:00:00 16.4 6 Este 19 Este 0 1013 -1.2 59
2020-03-23 10:00:00 15.7 5 Nordeste 24 Este 0 1013.5 -0.5 59
2020-03-23 09:00:00 13 6 Nordeste 25 Nordeste 0 1014.3 0.4 69
2020-03-23 08:00:00 12.1 11 Norte 26 Nordeste 0 1014.2 0.3 71
2020-03-23 07:00:00 12.2 4 Nordeste 12 Norte 0 1014 0.4 77
2020-03-23 06:00:00 12.1 3 Nordeste 17 Norte 0 1013.9 -0.4 77
2020-03-23 05:00:00 11 9 Norte 18 Norte 0 1013.9 -0.8 78
2020-03-23 04:00:00 11.6 6 Nordeste 15 Norte 0 1013.6 -0.9 80
2020-03-23 03:00:00 11.9 6 Norte 15 Nordeste 0 1014.3 -0.5 82
2020-03-23 02:00:00 12 4 Norte 12 Nordeste 0 1014.7 0 81
2020-03-23 01:00:00 12.2 2 Nordeste 9 Norte 0 1014.5 0.1 83
2020-03-23 00:00:00 12.3 3 Nordeste 10 Este 0 1014.8 0.9 84
2020-03-22 23:00:00 12.6 3 Norte 6 Norte 0 1014.7 1.5 82
2020-03-22 22:00:00 12.8 2 Norte 10 Oeste 0 1014.4 2.1 82
2020-03-22 21:00:00 13.2 5 Oeste 13 Oeste 0 1013.9 1.9 80
2020-03-22 20:00:00 13.5 9 Oeste 15 Oeste 0 1013.2 1.9 77
2020-03-22 19:00:00 14.4 4 Sudoeste 14 Oeste 0 1012.3 1.3 72
2020-03-22 18:00:00 14.2 8 Sudoeste 13 Sudoeste 0 1012 0.5 71
2020-03-22 17:00:00 15 2 Sur 13 Sudoeste 0 1011.3 -0.5 68
2020-03-22 16:00:00 15.3 4 Sudoeste 12 Sudoeste 0 1011 -1.4 67
2020-03-22 15:00:00 15.3 4 Sur 12 Sur 0 1011.5 -2 67
2020-03-22 14:00:00 14.7 6 Sur 12 Sudeste 0 1011.8 -1.4 71
2020-03-22 13:00:00 13.9 0 Calma 9 Sudeste 0 1012.4 -0.3 73
2020-03-22 12:00:00 12.3 5 Sudeste 12 Sudeste 0 1013.5 1.1 82
2020-03-22 11:00:00 12.5 7 Sudeste 13 Sudeste 0 1013.2 1 79
2020-03-22 10:00:00 12.3 3 Este 17 Este 0 1012.7 0.5 77
2020-03-22 09:00:00 11 2 Noroeste 7 Norte 0 1012.4 0.2 84
2020-03-22 08:00:00 11.1 3 Noroeste 15 Norte 0 1012.2 0 81
2020-03-22 07:00:00 11.1 4 Norte 15 Norte 0 1012.2 -0.3 76
2020-03-22 06:00:00 10.5 3 Norte 11 Norte 0.5 1012.2 -0.4 89
2020-03-22 05:00:00 11.1 0 Calma 6 Noroeste 1.2 1012.2 -0.9 87
2020-03-22 04:00:00 11.4 4 Norte 6 Norte 1 1012.5 -1.2 84
2020-03-22 03:00:00 12.2 0 Calma 4 Norte 0.2 1012.6 -1.4 77
2020-03-22 02:00:00 12.2 3 Oeste 13 Noroeste 0 1013.1 -0.7 78
2020-03-22 01:00:00 11.8 4 Oeste 31 Oeste 0.8 1013.7 -0.6 81
2020-03-22 00:00:00 13.9 4 Oeste 17 Oeste 0 1014 0.3 65
2020-03-21 23:00:00 13.6 3 Noroeste 8 Oeste 0 1013.8 0.8 66
2020-03-21 22:00:00 13.9 5 Oeste 23 Oeste 0 1014.3 1.8 64
2020-03-21 21:00:00 13.8 16 Oeste 47 Oeste 0.2 1013.7 2.9 69
2020-03-21 20:00:00 15 24 Oeste 53 Oeste 0 1013 2 61
2020-03-21 19:00:00 14.8 33 Oeste 58 Oeste 0 1012.5 1.3 77
2020-03-21 18:00:00 16.3 18 Sudoeste 41 Sudoeste 0 1010.8 -1 64
2020-03-21 17:00:00 16.2 24 Oeste 40 Oeste 0 1011 -1.5 63
2020-03-21 16:00:00 15.6 27 Oeste 45 Oeste 0 1011.2 -2.3 66
2020-03-21 15:00:00 15.5 27 Oeste 44 Oeste 0 1011.8 -2.3 67
2020-03-21 14:00:00 15.5 22 Oeste 35 Oeste 0 1012.5 -1.8 69
2020-03-21 13:00:00 14.9 19 Sudoeste 35 Sudoeste 0 1013.5 -0.6 78
2020-03-21 12:00:00 14.4 18 Sudoeste 32 Oeste 0 1014.1 -3 77
2020-03-21 11:00:00 14.1 20 Oeste 31 Oeste 0 1014.3 -4.6 77
2020-03-21 10:00:00 13.7 7 Noroeste 23 Norte 0 1014.1 -0.9 69
2020-03-21 09:00:00 11.4 10 Norte 20 Norte 0 1017.1 3.8 92
2020-03-21 08:00:00 10.9 8 Este 59 Oeste 0 1018.9 6 98
2020-03-21 07:00:00 12.3 16 Oeste 44 Oeste 0.5 1015 2.3 94
2020-03-21 06:00:00 15 5 Nordeste 16 Sudeste 0.4 1013.3 -0.6 77
2020-03-21 05:00:00 15.8 4 Este 21 Norte 0 1012.9 -1.6 71
2020-03-21 04:00:00 15.8 5 Nordeste 21 Este 0 1012.7 -2.3 70
2020-03-21 03:00:00 15.6 6 Este 13 Este 0 1013.9 -1.7 71
2020-03-21 02:00:00 15.4 6 Este 14 Nordeste 0 1014.5 -1.5 73
2020-03-21 01:00:00 16 6 Este 19 Este 0 1015 -1.3 71
2020-03-21 00:00:00 16 11 Este 19 Este 0 1015.6 -0.6 72
2020-03-20 23:00:00 15.7 6 Este 28 Este 0 1016 0.8 76
2020-03-20 22:00:00 15.7 11 Este 30 Este 0 1016.3 1.3 76
2020-03-20 21:00:00 16 8 Este 22 Sudeste 0 1016.2 2.2 72
2020-03-20 20:00:00 16.2 9 Este 24 Sudeste 0 1015.2 3 75
2020-03-20 19:00:00 16 13 Sudeste 26 Sudeste 0 1015 2 81
2020-03-20 18:00:00 16.9 10 Sudeste 24 Sudeste 0 1014 0.6 72
2020-03-20 17:00:00 18.9 3 Sur 16 Oeste 0 1012.2 -2.6 67
2020-03-20 16:00:00 18 10 Oeste 13 Oeste 0 1013 -2.8 61
2020-03-20 15:00:00 18.5 3 Sur 10 Sudoeste 0 1013.4 -1.3 67
2020-03-20 14:00:00 16.9 2 Sur 15 Sudoeste 0 1014.8 -1.4 75
2020-03-20 13:00:00 16.5 10 Sudoeste 17 Sudoeste 0 1015.8 -0.3 78
2020-03-20 12:00:00 19.5 0 Calma 13 Sudeste 0 1014.7 -1.5 65
2020-03-20 11:00:00 17.4 7 Oeste 19 Oeste 0 1016.2 1.1 68
2020-03-20 10:00:00 16.3 9 Sudoeste 21 Sudoeste 0 1016.1 1.4 70
2020-03-20 09:00:00 15.6 10 Sudoeste 20 Sudoeste 0 1016.2 1.1 84
2020-03-20 08:00:00 15.4 8 Oeste 14 Oeste 0 1015.1 0.2 81
2020-03-20 07:00:00 15.3 5 Nordeste 14 Este 0 1014.7 0.3 66
2020-03-20 06:00:00 15.3 10 Oeste 27 Oeste 0 1015.1 0.2 81
2020-03-20 05:00:00 15 15 Oeste 23 Sudoeste 0 1014.9 -1.3 86
2020-03-20 04:00:00 15.7 0 Calma 13 Oeste 0 1014.4 -2.5 76
2020-03-20 03:00:00 15.7 4 Noroeste 14 Norte 0 1014.9 -2.5 60
2020-03-20 02:00:00 14.6 2 Norte 8 Norte 0 1016.2 -0.6 77
2020-03-20 01:00:00 14.8 0 Calma 7 Nordeste 0 1016.9 0.4 80
2020-03-20 00:00:00 15.9 2 Oeste 20 Oeste 0 1017.4 1 78
2020-03-19 23:00:00 16.1 10 Oeste 19 Oeste 0 1016.8 0.7 77
2020-03-19 22:00:00 16 0 Calma 13 Oeste 0 1016.5 0.7 79
2020-03-19 21:00:00 16.1 2 Norte 18 Oeste 0 1016.4 1.2 75
2020-03-19 20:00:00 16.4 9 Oeste 19 Sudoeste 0 1016.1 0.9 76
2020-03-19 19:00:00 16.8 14 Oeste 24 Sudoeste 0 1015.8 0.3 74
2020-03-19 18:00:00 17 17 Oeste 26 Oeste 0 1015.2 -1 73
2020-03-19 17:00:00 17.2 17 Oeste 28 Oeste 0 1015.2 -2 76
2020-03-19 16:00:00 17.3 17 Oeste 25 Oeste 0 1015.5 -2.8 76
2020-03-19 15:00:00 17.3 17 Oeste 27 Oeste 0 1016.2 -2.6 74
2020-03-19 14:00:00 17.3 17 Oeste 25 Oeste 0 1017.2 -1.9 77
2020-03-19 13:00:00 17.2 15 Oeste 23 Oeste 0 1018.3 -0.9 76
2020-03-19 12:00:00 17.1 10 Sudoeste 19 Oeste 0 1018.8 0 78
2020-03-19 11:00:00 17.1 10 Oeste 18 Oeste 0 1019.1 0.5 79
2020-03-19 10:00:00 16.1 13 Oeste 20 Oeste 0 1019.2 0.7 82
2020-03-19 09:00:00 15.7 9 Oeste 12 Oeste 0 1018.8 0.6 77
2020-03-19 08:00:00 15.3 4 Oeste 7 Oeste 0 1018.6 0 71
2020-03-19 07:00:00 15 2 Oeste 6 Norte 0 1018.5 -0.1 67
2020-03-19 06:00:00 15.2 3 Norte 7 Sur 0 1018.2 -1.1 67
2020-03-19 05:00:00 15.6 0 Calma 6 Norte 0 1018.6 -1.1 66
2020-03-19 04:00:00 15.8 2 Noroeste 8 Norte 0 1018.6 -1.2 65
2020-03-19 03:00:00 16 0 Calma 7 Norte 0 1019.3 -1 60
2020-03-19 02:00:00 16.4 3 Este 13 Este 0 1019.7 0 59
2020-03-19 01:00:00 16.4 3 Nordeste 19 Sudoeste 0 1019.8 0.4 65
2020-03-19 00:00:00 16.8 9 Oeste 23 Oeste 0 1020.3 1.5 66
2020-03-18 23:00:00 16.7 13 Oeste 22 Oeste 0 1019.7 0.9 63
2020-03-18 22:00:00 17.2 0 Calma 35 Este 0 1019.4 0.9 57
2020-03-18 21:00:00 17.1 15 Este 36 Este 0 1018.8 0.9 61
2020-03-18 20:00:00 17.3 14 Este 38 Este 0 1018.8 1.1 60
2020-03-18 19:00:00 17.6 15 Este 44 Este 0 1018.5 1.1 61
2020-03-18 18:00:00 18.8 16 Este 40 Este 0 1017.9 0.7 56
2020-03-18 17:00:00 19.1 14 Este 37 Sudeste 0 1017.7 0 56
2020-03-18 16:00:00 20.1 15 Este 39 Este 0 1017.4 -1.1 52
2020-03-18 15:00:00 20.2 17 Este 52 Este 0 1017.2 -1.9 51
2020-03-18 14:00:00 20.3 20 Este 52 Sudeste 0 1017.7 -1.5 51
2020-03-18 13:00:00 20.1 20 Este 48 Sudeste 0 1018.5 -0.6 50
2020-03-18 12:00:00 20.1 21 Este 46 Este 0 1019.1 -0.2 50
2020-03-18 11:00:00 19.7 22 Este 45 Este 0 1019.2 -0.5 51
2020-03-18 10:00:00 19.3 18 Este 41 Sudeste 0 1019.1 -0.4 53
2020-03-18 09:00:00 18.8 10 Este 21 Este 0 1019.3 -0.2 52
2020-03-18 08:00:00 17.1 4 Nordeste 16 Este 0 1019.7 0.3 57
2020-03-18 07:00:00 18 13 Este 29 Este 0 1019.5 -0.1 55
2020-03-18 06:00:00 17.9 12 Este 29 Este 0 1019.5 -0.5 56
2020-03-18 05:00:00 18.3 6 Este 23 Este 0 1019.4 -0.6 56
2020-03-18 04:00:00 18.8 8 Este 18 Este 0 1019.6 -0.1 55
2020-03-18 03:00:00 18.3 8 Este 30 Este 0 1020 -0.3 56
2020-03-18 02:00:00 18 16 Este 35 Este 0 1020 0.4 60
2020-03-18 01:00:00 18 14 Este 41 Este 0 1019.7 0.8 61
2020-03-18 00:00:00 17.1 18 Este 42 Este 0 1020.3 1.3 73
2020-03-17 23:00:00 18.8 19 Este 48 Este 0 1019.6 1.2 59
2020-03-17 22:00:00 19.3 13 Este 36 Nordeste 0 1018.9 0.8 57
2020-03-17 21:00:00 18.7 11 Este 32 Sudeste 0 1019 1 59
2020-03-17 20:00:00 19.2 8 Este 26 Este 0 1018.4 -0.5 54
2020-03-17 19:00:00 19 6 Este 19 Norte 0 1018.1 -1.7 53
2020-03-17 18:00:00 18.7 4 Este 27 Este 0 1018 -2 60
2020-03-17 17:00:00 17 11 Este 28 Sudeste 0 1018.9 -1.2 70
2020-03-17 16:00:00 16.3 11 Este 35 Sudeste 0 1019.8 -1.7 75
2020-03-17 15:00:00 15.3 20 Sudeste 33 Sudeste 0 1020 -1 82
2020-03-17 14:00:00 18 8 Este 25 Este 0 1020.1 -2 43
2020-03-17 13:00:00 17 12 Este 23 Este 0 1021.5 0.4 40
2020-03-17 12:00:00 17.5 5 Nordeste 25 Este 0 1021 0.5 42
2020-03-17 11:00:00 15.9 13 Este 28 Nordeste 0 1022.1 1.3 46
2020-03-17 10:00:00 15.8 12 Este 27 Este 0 1021.1 1 50
2020-03-17 09:00:00 15.6 6 Nordeste 20 Este 0 1020.5 1.2 48
2020-03-17 08:00:00 12.6 7 Nordeste 19 Norte 0 1020.8 2.2 45
2020-03-17 07:00:00 12.1 5 Nordeste 20 Nordeste 0 1020.1 1.6 44
2020-03-17 06:00:00 12 8 Nordeste 22 Norte 0 1019.3 0.6 43
2020-03-17 05:00:00 12.1 9 Norte 17 Norte 0 1018.6 0.2 43
2020-03-17 04:00:00 12.8 10 Norte 17 Nordeste 0 1018.5 0.2 40
2020-03-17 03:00:00 13.1 6 Norte 14 Nordeste 0 1018.7 0.7 40
2020-03-17 02:00:00 12.9 5 Norte 16 Nordeste 0 1018.4 1.3 42
2020-03-17 01:00:00 12.8 4 Norte 12 Norte 0 1018.3 2.1 42
2020-03-17 00:00:00 13 0 Calma 11 Oeste 0 1018 3 42
2020-03-16 23:00:00 13.4 4 Norte 8 Norte 0 1017.1 3.7 39
2020-03-16 22:00:00 14.3 6 Oeste 23 Oeste 0 1016.2 4.1 39
2020-03-16 21:00:00 15.3 12 Oeste 34 Oeste 0 1015 4.2 40
2020-03-16 20:00:00 15.9 23 Oeste 42 Oeste 0 1013.4 3.5 43
2020-03-16 19:00:00 16.2 28 Oeste 49 Oeste 0 1012.1 2.2 41
2020-03-16 18:00:00 17.2 29 Oeste 51 Oeste 0 1010.8 0.4 39
2020-03-16 17:00:00 17 22 Sudoeste 51 Sudoeste 0 1009.9 -1.6 49
2020-03-16 16:00:00 16.2 30 Sudoeste 50 Sudoeste 0 1009.9 -1.7 49
2020-03-16 15:00:00 16.6 23 Sudoeste 44 Sudoeste 0 1010.4 -1.3 50
2020-03-16 14:00:00 15.8 22 Oeste 43 Sudoeste 0 1011.5 -0.2 52
2020-03-16 13:00:00 16.1 20 Sudoeste 38 Sudoeste 0 1011.6 -0.8 49
2020-03-16 12:00:00 17 18 Sudoeste 32 Sudoeste 0 1011.7 0 54
2020-03-16 11:00:00 16.7 7 Sudoeste 20 Oeste 0 1011.7 -0.5 79
2020-03-16 10:00:00 15.1 13 Oeste 32 Oeste 0.2 1012.4 0.5 91
2020-03-16 09:00:00 16.1 13 Oeste 23 Oeste 0 1011.7 -0.6 81
2020-03-16 08:00:00 15.1 11 Oeste 24 Oeste 0 1012.2 -0.3 84
2020-03-16 07:00:00 15.2 14 Oeste 27 Oeste 0 1011.9 -0.6 84
2020-03-16 06:00:00 15.2 10 Oeste 19 Oeste 0 1012.3 -1 80
2020-03-16 05:00:00 15.2 12 Oeste 27 Oeste 0 1012.5 -1.4 81
2020-03-16 04:00:00 15.4 17 Oeste 27 Oeste 0 1012.5 -2.2 84
2020-03-16 03:00:00 15.6 12 Oeste 18 Oeste 0 1013.3 -1.9 84
2020-03-16 02:00:00 15.7 7 Oeste 11 Oeste 0 1013.9 -1.6 83
2020-03-16 01:00:00 15.7 6 Sudoeste 10 Sudoeste 0 1014.7 -1.4 86
2020-03-16 00:00:00 15.9 6 Sudoeste 13 Oeste 0 1015.2 -0.3 81
2020-03-15 23:00:00 15.7 8 Oeste 14 Oeste 0 1015.5 0.5 87
2020-03-15 22:00:00 15.7 8 Sudoeste 14 Sudoeste 0 1016.1 1.5 88
2020-03-15 21:00:00 15.8 6 Sudoeste 17 Sudoeste 0 1015.5 1.4 86
2020-03-15 20:00:00 15.5 10 Oeste 20 Oeste 0 1015 -0.6 86
2020-03-15 19:00:00 15.6 13 Oeste 21 Oeste 0 1014.6 -1.8 86
2020-03-15 18:00:00 16.1 5 Oeste 18 Este 0.1 1014.1 -2.7 85
2020-03-15 17:00:00 15.8 3 Sudeste 10 Sudeste 0.1 1015.6 -2.3 81
2020-03-15 16:00:00 16.4 8 Sudeste 14 Sudeste 0 1016.4 -1 77
2020-03-15 15:00:00 16.3 5 Sudeste 19 Sur 0 1016.8 -0.7 75
2020-03-15 14:00:00 17.2 4 Sur 20 Sur 0 1017.9 -0.7 73
2020-03-15 13:00:00 18 6 Sur 14 Sur 0 1017.4 -0.6 70
2020-03-15 12:00:00 17.9 3 Sur 15 Sudoeste 0 1017.5 -1.3 70
2020-03-15 11:00:00 17.1 9 Sudoeste 16 Sudoeste 0 1018.6 0.2 73
2020-03-15 10:00:00 17.7 4 Sudoeste 10 Oeste 0 1018 -0.5 75
2020-03-15 09:00:00 15.6 0 Calma 7 Este 0 1018.8 0.1 79
2020-03-15 08:00:00 15.1 3 Nordeste 12 Este 0 1018.4 -0.5 80
2020-03-15 07:00:00 14.4 4 Nordeste 11 Este 0 1018.5 -0.2 81
2020-03-15 06:00:00 14.2 3 Norte 6 Norte 0 1018.7 -0.4 84
2020-03-15 05:00:00 14.6 2 Norte 5 Noroeste 0 1018.9 -0.4 82
2020-03-15 04:00:00 15.6 3 Este 10 Nordeste 0 1018.7 -0.8 79
2020-03-15 03:00:00 15.7 5 Este 15 Sudeste 0 1019.1 -0.7 80
2020-03-15 02:00:00 15.9 6 Este 16 Este 0 1019.3 -0.8 81
2020-03-15 01:00:00 15.9 6 Este 16 Este 0 1019.5 -0.5 83
2020-03-15 00:00:00 15.8 5 Este 9 Este 0 1019.8 0.4 91
2020-03-14 23:00:00 15.7 3 Nordeste 16 Sudeste 0 1020.1 1.1 91
2020-03-14 22:00:00 15.9 10 Sudeste 17 Este 0 1020 1 89
2020-03-14 21:00:00 16.3 7 Este 13 Sudeste 0 1019.4 1.4 88
2020-03-14 20:00:00 16.4 4 Nordeste 9 Este 0 1019 1.5 87
2020-03-14 19:00:00 16.3 5 Sudeste 8 Sudeste 0 1019 1.7 83
2020-03-14 18:00:00 17.6 4 Sudeste 10 Sudeste 0 1018 -0.4 76
2020-03-14 17:00:00 18.1 5 Sur 9 Sudeste 0 1017.5 -1.7 74
2020-03-14 16:00:00 18.2 4 Sudeste 11 Sudeste 0 1017.3 -2.9 67
2020-03-14 15:00:00 17.6 6 Sudeste 11 Sudoeste 0 1018.4 -1.9 69
2020-03-14 14:00:00 18.8 4 Sudeste 13 Sur 0 1019.2 -1.6 71
2020-03-14 13:00:00 17.9 7 Sur 11 Sur 0 1020.2 -0.9 71
2020-03-14 12:00:00 18.1 5 Sur 10 Sur 0 1020.3 0 70
2020-03-14 11:00:00 17.3 6 Sudeste 12 Sur 0 1020.8 0.5 77
2020-03-14 10:00:00 16.9 4 Sudeste 8 Sudeste 0 1021.1 1.3 75
2020-03-14 09:00:00 16.3 5 Este 7 Este 0 1020.3 0.9 77
2020-03-14 08:00:00 14.9 2 Norte 8 Oeste 0 1020.3 1.3 85
2020-03-14 07:00:00 15.5 3 Noroeste 7 Oeste 0 1019.8 0.7 82
2020-03-14 06:00:00 15.7 0 Calma 8 Este 0 1019.4 -0.4 80
2020-03-14 05:00:00 16 3 Sudeste 7 Este 0 1019 -0.9 86
2020-03-14 04:00:00 15.5 5 Sudeste 9 Sudeste 0 1019.1 -0.8 87
2020-03-14 03:00:00 15.9 4 Sudeste 10 Este 0 1019.8 -0.3 92
2020-03-14 02:00:00 15.9 5 Este 12 Sudeste 0 1019.9 -0.2 92
2020-03-14 01:00:00 16 6 Este 12 Sudeste 0 1019.9 0.4 93
2020-03-14 00:00:00 16.1 6 Sudeste 9 Sudeste 0 1020.1 1.2 93
2020-03-13 23:00:00 16.1 3 Sudeste 5 Sur 0 1020.1 1.7 93
2020-03-13 22:00:00 15.9 2 Nordeste 6 Nordeste 0 1019.5 1.6 93
2020-03-13 21:00:00 16 3 Norte 6 Norte 0 1018.9 2.1 94
2020-03-13 20:00:00 16.1 3 Norte 9 Sudeste 0 1018.4 1.7 93
2020-03-13 19:00:00 16.5 5 Sudeste 13 Sudeste 0 1017.9 1.2 90
2020-03-13 18:00:00 17.1 7 Sudeste 13 Sudeste 0 1016.8 0 89
2020-03-13 17:00:00 17.4 8 Sudeste 17 Sudeste 0 1016.7 -1 88
2020-03-13 16:00:00 17.6 12 Sudeste 22 Sudeste 0 1016.7 -1.1 83
2020-03-13 15:00:00 18.3 10 Sudeste 22 Sudeste 0 1016.8 -0.6 72
2020-03-13 14:00:00 18.4 7 Sudoeste 19 Sudoeste 0 1017.7 0.3 74
2020-03-13 13:00:00 18.6 8 Sudeste 14 Sudeste 0 1017.8 0.4 81
2020-03-13 12:00:00 18.9 6 Sudeste 15 Sudeste 0 1017.4 0.3 78
2020-03-13 11:00:00 18 9 Sudeste 14 Este 0 1017.4 0.5 75
2020-03-13 10:00:00 17 7 Sudeste 11 Sudeste 0 1017.4 0.6 72
2020-03-13 09:00:00 16.3 3 Nordeste 13 Este 0 1017.1 0.5 59
2020-03-13 08:00:00 15.8 4 Este 10 Este 0 1016.9 0.5 66
2020-03-13 07:00:00 15.2 3 Norte 5 Noroeste 0 1016.8 0.3 62
2020-03-13 06:00:00 15.3 2 Norte 4 Norte 0 1016.6 -0.2 61
2020-03-13 05:00:00 15.6 0 Calma 5 Norte 0 1016.4 -1.1 60
2020-03-13 04:00:00 15.6 0 Calma 3 Norte 0 1016.5 -1.2 61
2020-03-13 03:00:00 15.6 0 Calma 4 Noroeste 0 1016.8 -0.8 61
2020-03-13 02:00:00 16.3 0 Calma 4 Norte 0 1017.5 -0.2 59
2020-03-13 01:00:00 16.3 2 Noroeste 4 Noroeste 0 1017.7 0.4 65
2020-03-13 00:00:00 17.5 3 Norte 5 Norte 0 1017.6 0.1 56
2020-03-12 23:00:00 17.1 0 Calma 2 Oeste 0 1017.7 0.7 65
2020-03-12 22:00:00 17.7 0 Calma 3 Norte 0 1017.3 0.4 60
2020-03-12 21:00:00 17.5 0 Calma 5 Oeste 0 1017.5 1.2 72
2020-03-12 20:00:00 17.9 5 Oeste 18 Oeste 0 1017 0.6 72
2020-03-12 19:00:00 18.3 12 Oeste 18 Oeste 0 1016.9 0.3 70
2020-03-12 18:00:00 19.3 9 Sudoeste 19 Oeste 0 1016.3 -0.3 66
2020-03-12 17:00:00 19 14 Oeste 21 Sudoeste 0 1016.4 -0.3 70
2020-03-12 16:00:00 19.1 12 Oeste 18 Sudoeste 0 1016.6 -2.3 73
2020-03-12 15:00:00 20.1 10 Oeste 16 Sudoeste 0 1016.6 -2.7 68
2020-03-12 14:00:00 24.2 3 Sudoeste 16 Oeste 0 1016.7 -2.2 49
2020-03-12 13:00:00 20.6 9 Sudoeste 17 Oeste 0 1018.9 1.1 61
2020-03-12 12:00:00 21.5 4 Sudoeste 15 Sudeste 0 1019.3 1.2 56
2020-03-12 11:00:00 23.7 6 Sudeste 16 Sudeste 0 1018.9 0.1 36
2020-03-12 10:00:00 26.4 7 Norte -- -- -- 1017.8 -1.2 33
2020-03-12 09:00:00 22.8 9 Norte 19 Norte 0 1018.1 -1.1 39
2020-03-12 08:00:00 20.9 4 Nordeste 14 Nordeste 0 1018.8 -0.9 42
2020-03-12 07:00:00 19.2 3 Nordeste 10 Norte 0 1019 -1.1 46
2020-03-12 06:00:00 19.1 2 Este 8 Norte 0 1019.2 -1.8 45
2020-03-12 05:00:00 17.3 3 Norte 5 Oeste 0 1019.7 -2 49
2020-03-12 04:00:00 17.5 0 Calma 7 Este 0 1020.1 -1.9 48
2020-03-12 03:00:00 17.6 2 Nordeste 6 Nordeste 0 1021 -1.1 47
2020-03-12 02:00:00 18.4 4 Norte 9 Norte 0 1021.7 0.5 48
2020-03-12 01:00:00 17.8 3 Nordeste 10 Nordeste 0 1022 1 54
2020-03-12 00:00:00 17.9 3 Nordeste 13 Este 0 1022.1 1.1 57
2020-03-11 23:00:00 19.4 2 Sudeste 14 Este 0 1021.2 0 53
2020-03-11 22:00:00 17.9 0 Calma 9 Oeste 0 1021 0.6 55
2020-03-11 21:00:00 18.4 5 Este 9 Este 0 1021 1.6 53
2020-03-11 20:00:00 19.2 3 Este 7 Este 0 1021.2 1 51
2020-03-11 19:00:00 19.8 0 Calma 6 Sudeste 0 1020.4 0.2 51
2020-03-11 18:00:00 21.3 3 Sur 9 Oeste 0 1019.4 -1.1 45
2020-03-11 17:00:00 21.3 5 Sudoeste 9 Sudoeste 0 1020.2 -1.8 44
2020-03-11 16:00:00 22.6 3 Sur 8 Sur 0 1020.2 -3.4 41
2020-03-11 15:00:00 23.3 3 Sur 8 Sudoeste 0 1020.5 -3.6 41
2020-03-11 14:00:00 22.7 2 Sur 10 Sudoeste 0 1022 -2.2 44
2020-03-11 13:00:00 21.1 3 Sudoeste 7 Sur 0 1023.6 -0.2 48
2020-03-11 12:00:00 19 4 Sudeste 10 Sudeste 0 1024.1 0.2 56
2020-03-11 11:00:00 17.7 6 Sudeste 10 Sudeste 0 1024.2 -0.6 72
2020-03-11 10:00:00 -- -- -- -- -- -- -- -- --
2020-03-11 09:00:00 -- -- -- -- -- -- -- -- --
2020-03-11 08:00:00 -- -- -- -- -- -- -- -- --
2020-03-11 07:00:00 -- -- -- -- -- -- -- -- --
2020-03-11 06:00:00 -- -- -- -- -- -- -- -- --
2020-03-11 05:00:00 -- -- -- -- -- -- -- -- --
2020-03-11 04:00:00 -- -- -- -- -- -- -- -- --
2020-03-11 03:00:00 -- -- -- -- -- -- -- -- --
2020-03-11 02:00:00 -- -- -- -- -- -- -- -- --
2020-03-11 01:00:00 -- -- -- -- -- -- -- -- --
2020-03-11 00:00:00 -- -- -- -- -- -- -- -- --
2020-03-10 23:00:00 -- -- -- -- -- -- -- -- --
2020-03-10 22:00:00 -- -- -- -- -- -- -- -- --
2020-03-10 21:00:00 -- -- -- -- -- -- -- -- --
2020-03-10 20:00:00 -- -- -- -- -- -- -- -- --
2020-03-10 19:00:00 -- -- -- -- -- -- -- -- --
2020-03-10 18:00:00 -- -- -- -- -- -- -- -- --
2020-03-10 17:00:00 -- -- -- -- -- -- -- -- --
2020-03-10 16:00:00 -- -- -- -- -- -- -- -- --
2020-03-10 15:00:00 18.5 4 Sudeste 11 Sur 0 1025.7 -1.9 65
2020-03-10 14:00:00 18.7 5 Sudeste 11 Sudeste 0 1026.6 -0.1 60
2020-03-10 13:00:00 19.4 4 Sudeste 10 Sudeste 0 1027.4 1.7 61
2020-03-10 12:00:00 18.4 7 Sudeste 12 Sudeste 0 1027.6 2.7 56
2020-03-10 11:00:00 19.7 5 Sudeste 10 Sudeste 0 1026.7 1.7 49
2020-03-10 10:00:00 20.2 2 Sudeste 7 Sudeste 0 1025.7 1.3 50
2020-03-10 09:00:00 18.6 3 Nordeste 13 Nordeste 0 1024.9 1.1 50
2020-03-10 08:00:00 15 4 Nordeste 11 Este 0 1025 1.3 53
2020-03-10 07:00:00 14.4 0 Calma 7 Nordeste 0 1024.4 1.1 62
2020-03-10 06:00:00 14.8 3 Norte 9 Norte 0 1023.8 0.2 62
2020-03-10 05:00:00 14.4 3 Nordeste 9 Norte 0 1023.7 -0.1 72
2020-03-10 04:00:00 14.2 2 Nordeste 8 Noroeste 0 1023.3 -0.4 68
2020-03-10 03:00:00 14.8 0 Calma 8 Este 0 1023.6 -0.2 72
2020-03-10 02:00:00 15.5 3 Norte 6 Norte 0 1023.8 0.6 67
2020-03-10 01:00:00 15.4 3 Nordeste 9 Este 0 1023.7 1.1 58
2020-03-10 00:00:00 15.5 5 Nordeste 10 Nordeste 0 1023.8 1.3 55
2020-03-09 23:00:00 15.6 4 Nordeste 12 Este 0 1023.2 1.2 56
2020-03-09 22:00:00 16.8 4 Nordeste 14 Este 0 1022.6 0.7 64
2020-03-09 21:00:00 15.6 3 Sudeste 8 Oeste 0 1022.5 1.2 81
2020-03-09 20:00:00 16.6 5 Noroeste 19 Oeste 0 1022 2.1 82
2020-03-09 19:00:00 17 11 Oeste 17 Sudoeste 0 1021.9 1.9 86
2020-03-09 18:00:00 19 9 Sudoeste 16 Sudoeste 0 1021.3 0.1 52
2020-03-09 17:00:00 21.9 2 Sur 6 Sudeste 0 1019.9 -3 42
2020-03-09 16:00:00 20.9 3 Sudeste 10 Sur 0 1020 -3.2 49
2020-03-09 15:00:00 20.5 4 Sudeste 15 Sudeste 0 1021.2 -3 49
2020-03-09 14:00:00 19.5 9 Sudeste 17 Sudeste 0 1022.9 -0.5 57
2020-03-09 13:00:00 20.5 3 Sudeste 13 Sudeste 0 1023.2 0.9 63
2020-03-09 12:00:00 18.2 6 Sudeste 15 Sur 0 1024.2 1.4 77
2020-03-09 11:00:00 19.8 8 Sudeste 12 Sudeste 0 1023.4 0.3 55
2020-03-09 10:00:00 18.8 0 Calma 6 Sudeste 0 1022.3 -0.5 53
2020-03-09 09:00:00 16.7 0 Calma 6 Nordeste 0 1022.8 0.3 53
2020-03-09 08:00:00 13.7 3 Noroeste 7 Nordeste 0 1023.1 0.5 51
2020-03-09 07:00:00 12.5 3 Nordeste 15 Nordeste 0 1022.8 0.1 56
2020-03-09 06:00:00 13.6 4 Nordeste 10 Este 0 1022.5 -0.4 77
2020-03-09 05:00:00 11.9 4 Nordeste 10 Este 0 1022.6 -1 80
2020-03-09 04:00:00 13.4 3 Nordeste 12 Nordeste 0 1022.7 -1.3 76
2020-03-09 03:00:00 13.8 8 Oeste 13 Oeste 0 1022.9 -1.9 80
2020-03-09 02:00:00 13.8 2 Norte 11 Este 0 1023.6 -1.5 82
2020-03-09 01:00:00 14.8 3 Nordeste 7 Oeste 0 1024 -0.8 87
2020-03-09 00:00:00 14.7 0 Calma 8 Norte 0 1024.8 0 87
2020-03-08 23:00:00 14.8 0 Calma 11 Oeste 0 1025.1 0.8 86
2020-03-08 22:00:00 15.1 9 Oeste 23 Oeste 0 1024.8 0.6 84
2020-03-08 21:00:00 15.4 13 Oeste 22 Oeste 0 1024.8 1.2 84
2020-03-08 20:00:00 15.3 14 Oeste 23 Oeste 0 1024.3 0.2 78
2020-03-08 19:00:00 15.4 14 Oeste 25 Oeste 0 1024.2 0.4 86
2020-03-08 18:00:00 15.8 18 Oeste 28 Sudoeste 0 1023.6 -0.7 84
2020-03-08 17:00:00 15.9 18 Oeste 26 Sudoeste 0 1024.1 -1.5 82
2020-03-08 16:00:00 16.9 12 Sudoeste 24 Sudoeste 0 1023.8 -2.6 74
2020-03-08 15:00:00 16.6 13 Sudoeste 23 Sudoeste 0 1024.3 -2 74
2020-03-08 14:00:00 16.8 13 Sudoeste 20 Sudoeste 0 1025.6 -0.8 76
2020-03-08 13:00:00 17.6 10 Sudoeste 17 Sudoeste 0 1026.4 0.7 71
2020-03-08 12:00:00 17.9 6 Sudoeste 12 Sudoeste 0 1026.3 0.8 71
2020-03-08 11:00:00 16.9 6 Sudoeste 14 Sudoeste 0 1026.4 0 66
2020-03-08 10:00:00 17.4 4 Sudoeste 9 Sudoeste 0 1025.7 -0.5 59
2020-03-08 09:00:00 16.8 0 Calma 5 Norte 0 1025.5 -0.4 61
2020-03-08 08:00:00 12.7 4 Norte 8 Noroeste 0 1026.4 0.6 76
2020-03-08 07:00:00 12.5 5 Norte 7 Norte 0 1026.2 0.1 77
2020-03-08 06:00:00 12.9 3 Norte 7 Norte 0 1025.9 -0.7 80
2020-03-08 05:00:00 13 3 Norte 7 Norte 0 1025.8 -0.9 78
2020-03-08 04:00:00 13.2 0 Calma 8 Norte 0 1026.1 -0.9 80
2020-03-08 03:00:00 13.6 3 Norte 9 Norte 0 1026.6 -0.3 81
2020-03-08 02:00:00 14 4 Norte 6 Norte 0 1026.7 -0.3 80
2020-03-08 01:00:00 14.3 2 Nordeste 8 Nordeste 0 1027 0.6 78
2020-03-08 00:00:00 14.4 3 Nordeste 10 Este 0 1026.9 1.1 75
2020-03-07 23:00:00 14.6 2 Este 11 Norte 0 1027 1.8 75
2020-03-07 22:00:00 14.7 2 Norte 10 Norte 0 1026.4 2 76
2020-03-07 21:00:00 14.8 2 Norte 9 Oeste 0 1025.8 1.7 76
2020-03-07 20:00:00 15.4 7 Oeste 15 Oeste 0 1025.2 2.8 81
2020-03-07 19:00:00 15.8 11 Oeste 18 Oeste 0 1024.4 0.8 71
2020-03-07 18:00:00 15.9 8 Oeste 12 Sudoeste 0 1024.1 1.3 59
2020-03-07 17:00:00 18.1 6 Sudoeste 17 Sudoeste 0 1022.4 -1.5 58
2020-03-07 16:00:00 16.6 11 Sudoeste 17 Sudoeste 0 1023.6 -1.7 61
2020-03-07 15:00:00 18.3 6 Sudoeste 19 Sudoeste 0 1022.8 -2.6 56
2020-03-07 14:00:00 18.2 8 Sudoeste 18 Sudoeste 0 1023.9 -1.3 55
2020-03-07 13:00:00 17.4 11 Oeste 20 Sudoeste 0 1025.3 1.1 62
2020-03-07 12:00:00 16.9 10 Sudoeste 28 Oeste 0 1025.4 0.8 62
2020-03-07 11:00:00 17.4 9 Sudoeste 15 Sudoeste 0 1025.2 0.4 56
2020-03-07 10:00:00 18.1 4 Sudoeste 10 Oeste 0 1024.2 -0.3 52
2020-03-07 09:00:00 16.8 0 Calma 10 Norte 0 1024.6 0.8 51
2020-03-07 08:00:00 14.1 3 Norte 7 Norte 0 1024.8 1.1 55
2020-03-07 07:00:00 14.1 0 Calma 13 Norte 0 1024.5 1.6 51
2020-03-07 06:00:00 14.5 6 Norte 17 Norte 0 1023.8 0.5 48
2020-03-07 05:00:00 14.2 0 Calma 12 Norte 0 1023.7 0.7 50
2020-03-07 04:00:00 14.7 3 Norte 15 Nordeste 0 1022.9 -0.1 50
2020-03-07 03:00:00 14.7 3 Norte 8 Norte 0 1023.3 0.9 52
2020-03-07 02:00:00 15.1 3 Norte 10 Nordeste 0 1023 1.2 53
2020-03-07 01:00:00 15.3 3 Nordeste 7 Este 0 1023 2.2 54
2020-03-07 00:00:00 16.2 0 Calma 13 Nordeste 0 1022.4 3.2 54
2020-03-06 23:00:00 16.6 3 Norte 17 Este 0 1021.8 4 55
2020-03-06 22:00:00 17.5 9 Este 20 Este 0 1020.8 4.7 50
2020-03-06 21:00:00 17.9 6 Este 23 Este 0 1019.2 4.6 48
2020-03-06 20:00:00 17.5 9 Nordeste 22 Este 0 1017.8 3.7 54
2020-03-06 19:00:00 17.9 11 Este 26 Este 0 1016.1 1 53
2020-03-06 18:00:00 18.6 9 Este 29 Oeste 0 1014.6 -0.5 50
2020-03-06 17:00:00 18.3 15 Oeste 44 Oeste 0 1014.1 -2 55
2020-03-06 16:00:00 16.9 26 Oeste 49 Oeste 0 1015.1 -2 63
2020-03-06 15:00:00 16.6 24 Oeste 46 Oeste 0 1015.1 -2.7 61
2020-03-06 14:00:00 18.1 7 Sudeste 11 Sudeste 0 1016.1 -2.1 50
2020-03-06 13:00:00 19.1 5 Sudoeste 11 Sudoeste 0 1017.1 -0.8 47
2020-03-06 12:00:00 18.3 5 Sudoeste 12 Sur 0 1017.8 0 54
2020-03-06 11:00:00 17.7 7 Oeste 11 Sudoeste 0 1018.2 0.3 50
2020-03-06 10:00:00 17.5 4 Sudoeste 14 Norte 0 1017.9 0.5 55
2020-03-06 09:00:00 17 6 Norte 14 Norte 0 1017.8 1.4 45
2020-03-06 08:00:00 14.6 0 Calma 11 Norte 0 1017.9 2.2 50
2020-03-06 07:00:00 15.1 4 Nordeste 10 Nordeste 0 1017.4 2 46
2020-03-06 06:00:00 15.9 5 Norte 17 Norte 0 1016.4 1.4 44
2020-03-06 05:00:00 16.3 4 Norte 19 Norte 0 1015.7 0.9 43
2020-03-06 04:00:00 16.3 4 Nordeste 19 Norte 0 1015.4 0 40
2020-03-06 03:00:00 16.5 8 Norte 18 Nordeste 0 1015 0.3 43
2020-03-06 02:00:00 15.8 2 Nordeste 9 Nordeste 0 1014.8 0.5 46
2020-03-06 01:00:00 15.1 2 Norte 6 Norte 0 1015.4 1.3 54
2020-03-06 00:00:00 17.5 4 Nordeste 12 Este 0 1014.7 1.7 45
2020-03-05 23:00:00 16 4 Nordeste 13 Nordeste 0 1014.3 2 58
2020-03-05 22:00:00 17 0 Calma 13 Sudoeste 0 1014.1 2.1 55
2020-03-05 21:00:00 17.2 12 Oeste 35 Oeste 0 1013 2.6 62
2020-03-05 20:00:00 18 20 Oeste 55 Oeste 0 1012.3 2.7 60
2020-03-05 19:00:00 17 27 Oeste 53 Oeste 0 1012 1.5 71
2020-03-05 18:00:00 17.9 27 Oeste 50 Oeste 0 1010.4 0 70
2020-03-05 17:00:00 18.4 26 Oeste 65 Sudoeste 0 1009.6 -2.7 70
2020-03-05 16:00:00 17.7 37 Oeste 63 Oeste 0 1010.5 -2.9 72
2020-03-05 15:00:00 18.2 32 Oeste 58 Oeste 0 1010.4 -3 70
2020-03-05 14:00:00 17.6 29 Oeste 53 Oeste 0 1012.3 -2.2 71
2020-03-05 13:00:00 17 33 Oeste 52 Sudoeste 0 1013.4 -1.8 76
2020-03-05 12:00:00 19 3 Sudoeste 18 Sudoeste 0 1013.4 -1.2 68
2020-03-05 11:00:00 17.3 10 Sudoeste 15 Sudoeste 0 1014.5 -1.6 71
2020-03-05 10:00:00 17 9 Oeste 12 Sudoeste 0 1015.2 -0.8 70
2020-03-05 09:00:00 18 0 Calma 4 Oeste 0 1014.6 -1.9 61
2020-03-05 08:00:00 13.5 4 Norte 7 Noroeste 0 1016.1 -0.1 73
2020-03-05 07:00:00 13.7 3 Nordeste 5 Nordeste 0 1016 -0.7 73
2020-03-05 06:00:00 13.7 0 Calma 7 Norte 0 1016.5 -0.9 73
2020-03-05 05:00:00 14.8 2 Nordeste 12 Nordeste 0 1016.2 -1.7 66
2020-03-05 04:00:00 14.8 5 Este 10 Este 0 1016.7 -1 80
2020-03-05 03:00:00 14.1 0 Calma 6 Este 0 1017.4 -0.2 91
2020-03-05 02:00:00 14.6 2 Oeste 12 Sudoeste 0 1017.9 0.4 93
2020-03-05 01:00:00 15.2 7 Oeste 17 Oeste 0 1017.7 0.3 89
2020-03-05 00:00:00 15.4 2 Oeste 14 Nordeste 0 1017.6 0.2 83
2020-03-04 23:00:00 15.6 0 Calma 11 Este 0 1017.5 0.2 82
2020-03-04 22:00:00 17.7 4 Sudeste 18 Este 0 1017.4 0.2 73
2020-03-04 21:00:00 16.9 5 Este 9 Este 0 1017.4 0.6 77
2020-03-04 20:00:00 17 4 Este 9 Nordeste 0 1017.3 0 80
2020-03-04 19:00:00 17.8 0 Calma 14 Sudoeste 0 1017.2 -0.6 76
2020-03-04 18:00:00 17.7 8 Sudoeste 22 Oeste 0 1016.8 -1.8 79
2020-03-04 17:00:00 17.3 13 Sudoeste 25 Oeste 0 1017.3 -1.8 82
2020-03-04 16:00:00 17.2 15 Oeste 30 Sudoeste 0 1017.8 -2.2 85
2020-03-04 15:00:00 17.6 16 Oeste 26 Sudoeste 0 1018.6 -2 81
2020-03-04 14:00:00 20.3 6 Sudoeste 11 Sudoeste 0 1019.1 -1.3 61
2020-03-04 13:00:00 20.6 2 Sur 12 Sudeste 0 1020 0.6 62
2020-03-04 12:00:00 18.7 6 Sudeste 13 Sudeste 0 1020.6 1.2 65
2020-03-04 11:00:00 17.9 4 Sudeste 9 Sudeste 0 1020.4 -0.2 67
2020-03-04 10:00:00 20.5 0 Calma 8 Sudoeste 0 1019.4 -1 59
2020-03-04 09:00:00 20.3 0 Calma 5 Norte 0 1019.4 -0.7 54
2020-03-04 08:00:00 15.8 3 Norte 7 Norte 0 1020.6 0.5 60
2020-03-04 07:00:00 15.9 3 Norte 8 Norte 0 1020.4 0.8 61
2020-03-04 06:00:00 16.2 3 Norte 8 Noroeste 0 1020.1 -0.2 62
2020-03-04 05:00:00 15.9 5 Oeste 15 Noroeste 0 1020.1 0.3 67
2020-03-04 04:00:00 17.7 0 Calma 9 Norte 0 1019.6 -0.3 55
2020-03-04 03:00:00 15.7 2 Norte 10 Oeste 0 1020.3 0.4 70
2020-03-04 02:00:00 18.8 0 Calma 10 Noroeste 0 1019.8 0.5 51
2020-03-04 01:00:00 16.9 0 Calma 5 Nordeste 0 1019.9 1.3 57
2020-03-04 00:00:00 16.5 4 Noroeste 12 Nordeste 0 1019.9 2.9 70
2020-03-03 23:00:00 16.5 6 Oeste 18 Sudoeste 0 1019.3 2.8 70
2020-03-03 22:00:00 17.9 9 Oeste 15 Oeste 0 1018.6 3.2 56
2020-03-03 21:00:00 20.4 6 Este 20 Este 0 1017 2.6 44
2020-03-03 20:00:00 18.8 5 Nordeste 14 Este 0 1016.5 1.8 52
2020-03-03 19:00:00 20.8 6 Este 30 Oeste 0 1015.4 0.3 43
2020-03-03 18:00:00 22 21 Oeste 39 Oeste 0 1014.4 -0.8 39
2020-03-03 17:00:00 21.4 15 Oeste 53 Oeste 0 1014.7 -1.9 41
2020-03-03 16:00:00 20 18 Sudoeste 48 Sudoeste 0 1015.1 -3.4 45
2020-03-03 15:00:00 19.8 6 Sudeste 13 Sudeste 0 1015.2 -3.8 45
2020-03-03 14:00:00 18.6 9 Sudeste 16 Sudeste 0 1016.6 -2.8 47
2020-03-03 13:00:00 18.4 10 Sudeste 18 Sudeste 0 1018.5 -1.4 46
2020-03-03 12:00:00 18.6 4 Sudeste 10 Sudeste 0 1019 -1.6 49
2020-03-03 11:00:00 19.5 0 Calma 17 Sudoeste 0 1019.4 -0.9 43
2020-03-03 10:00:00 18.4 4 Sudoeste 8 Sudoeste 0 1019.9 -0.3 42
2020-03-03 09:00:00 17 2 Este 8 Este 0 1020.6 1.5 44
2020-03-03 08:00:00 15.6 0 Calma 15 Norte 0 1020.3 1 46
2020-03-03 07:00:00 15.6 8 Norte 17 Norte 0 1020.2 1.3 44
2020-03-03 06:00:00 15 5 Norte 10 Norte 0 1019.1 0.9 45
2020-03-03 05:00:00 14 0 Calma 11 Oeste 0 1019.3 2.1 54
2020-03-03 04:00:00 14.3 0 Calma 18 Este 0 1018.9 1 48
2020-03-03 03:00:00 15.9 7 Este 19 Nordeste 0 1018.2 0.7 44
2020-03-03 02:00:00 17 11 Norte 22 Norte 0 1017.2 0.2 43
2020-03-03 01:00:00 16.2 0 Calma 45 Oeste 0 1017.9 1 44
2020-03-03 00:00:00 16.9 22 Oeste 41 Oeste 0 1017.5 1.1 51
2020-03-02 23:00:00 18.1 20 Oeste 53 Oeste 0 1017 1.7 44
2020-03-02 22:00:00 17.8 22 Oeste 49 Oeste 0 1016.9 2.2 49
2020-03-02 21:00:00 17.3 31 Oeste 54 Oeste 0 1016.4 1.9 56
2020-03-02 20:00:00 18.2 32 Oeste 55 Oeste 0 1015.3 1.9 50
2020-03-02 19:00:00 17 25 Oeste 46 Oeste 0 1014.7 2.4 76
2020-03-02 18:00:00 16.6 21 Oeste 54 Oeste 0 1014.5 2.1 86
2020-03-02 17:00:00 16.8 33 Oeste 58 Oeste 0 1013.4 1.8 84
2020-03-02 16:00:00 16.9 35 Oeste 63 Oeste 0 1012.3 0.1 87
2020-03-02 15:00:00 17.1 40 Oeste 74 Oeste 0 1012.4 0 86
2020-03-02 14:00:00 17.2 39 Oeste 67 Oeste 0 1011.6 0.2 83
2020-03-02 13:00:00 16.9 39 Oeste 68 Oeste 0 1012.2 0.7 83
2020-03-02 12:00:00 16.5 42 Oeste 74 Oeste 0 1012.4 0 87
2020-03-02 11:00:00 16.3 42 Oeste 72 Oeste 0 1011.4 -0.1 88
2020-03-02 10:00:00 16.2 40 Oeste 67 Oeste 0 1011.5 0.5 88
2020-03-02 09:00:00 15.7 30 Oeste 59 Oeste 0 1012.4 1.1 89
2020-03-02 08:00:00 15.7 33 Oeste 66 Oeste 0 1011.5 0 86
2020-03-02 07:00:00 15.8 27 Oeste 54 Oeste 0 1011 -1.6 85
2020-03-02 06:00:00 16.5 31 Oeste 56 Oeste 0 1011.3 -2.8 73
2020-03-02 05:00:00 16 26 Oeste 53 Sudoeste 0 1011.5 -3.8 81
2020-03-02 04:00:00 15.9 13 Oeste 31 Sudoeste 0 1012.6 -2.8 77
2020-03-02 03:00:00 15.2 17 Oeste 42 Oeste 0 1014.1 -1.9 91
2020-03-02 02:00:00 15.5 19 Oeste 33 Oeste 0 1015.3 -1 86
2020-03-02 01:00:00 16 18 Oeste 32 Oeste 0 1015.4 -0.9 79
2020-03-02 00:00:00 16.6 15 Sudoeste 33 Sudoeste 0 1016 -0.2 74